createdAt,value
2019-03-20T00:00:24.850Z,27.27
2019-03-20T00:02:57.626Z,27.73
2019-03-20T00:05:30.777Z,29.03
2019-03-20T00:08:03.469Z,29.53
2019-03-20T00:10:36.569Z,24.70
2019-03-20T00:13:10.767Z,27.73
2019-03-20T00:15:43.752Z,30.10
2019-03-20T00:18:16.448Z,31.23
2019-03-20T00:20:50.115Z,29.30
2019-03-20T00:23:22.951Z,27.03
2019-03-20T00:25:56.475Z,30.63
2019-03-20T00:28:29.656Z,29.17
2019-03-20T00:31:03.119Z,27.03
2019-03-20T00:33:35.727Z,27.90
2019-03-20T00:36:08.811Z,30.67
2019-03-20T00:38:41.549Z,27.80
2019-03-20T00:41:13.895Z,27.83
2019-03-20T00:43:46.437Z,32.47
2019-03-20T00:46:19.560Z,33.70
2019-03-20T00:48:52.033Z,33.10
2019-03-20T00:51:24.657Z,34.73
2019-03-20T00:53:57.280Z,39.67
2019-03-20T00:56:30.222Z,31.07
2019-03-20T00:59:02.920Z,31.77
2019-03-20T01:01:35.886Z,35.03
2019-03-20T01:04:08.387Z,29.50
2019-03-20T01:06:41.152Z,31.80
2019-03-20T01:09:14.163Z,31.57
2019-03-20T01:11:46.827Z,31.43
2019-03-20T01:14:19.510Z,31.00
2019-03-20T01:16:53.193Z,33.57
2019-03-20T01:19:25.761Z,31.10
2019-03-20T01:21:58.865Z,28.60
2019-03-20T01:24:31.163Z,27.83
2019-03-20T01:27:03.850Z,32.13
2019-03-20T01:29:36.447Z,35.37
2019-03-20T01:32:09.342Z,27.03
2019-03-20T01:34:42.214Z,30.17
2019-03-20T01:37:14.794Z,29.60
2019-03-20T01:39:47.384Z,29.90
2019-03-20T01:42:20.040Z,31.93
2019-03-20T01:44:52.644Z,35.00
2019-03-20T01:47:25.560Z,31.63
2019-03-20T01:49:58.221Z,27.43
2019-03-20T01:52:30.750Z,31.37
2019-03-20T01:55:03.928Z,32.17
2019-03-20T01:57:37.807Z,34.33
2019-03-20T02:00:10.764Z,32.87
2019-03-20T02:02:43.430Z,29.77
2019-03-20T02:05:16.118Z,32.77
2019-03-20T02:07:48.804Z,29.23
2019-03-20T02:10:22.329Z,33.97
2019-03-20T02:12:55.058Z,34.43
2019-03-20T02:15:38.084Z,31.93
2019-03-20T02:18:02.005Z,30.33
2019-03-20T02:20:34.650Z,35.60
2019-03-20T02:23:07.341Z,33.40
2019-03-20T02:25:39.995Z,34.00
2019-03-20T02:28:14.213Z,34.53
2019-03-20T02:30:46.792Z,32.03
2019-03-20T02:33:19.645Z,35.13
2019-03-20T02:35:52.487Z,32.10
2019-03-20T02:38:25.338Z,35.17
2019-03-20T02:40:57.721Z,30.30
2019-03-20T02:43:30.704Z,33.30
2019-03-20T02:46:03.405Z,36.03
2019-03-20T02:48:36.275Z,29.50
2019-03-20T02:51:08.829Z,30.50
2019-03-20T02:53:41.190Z,35.70
2019-03-20T02:56:13.805Z,34.73
2019-03-20T02:58:46.445Z,31.60
2019-03-20T03:01:22.898Z,31.10
2019-03-20T03:03:57.485Z,34.27
2019-03-20T03:06:30.115Z,32.40
2019-03-20T03:09:03.332Z,34.00
2019-03-20T03:11:35.908Z,31.93
2019-03-20T03:14:08.586Z,35.47
2019-03-20T03:16:41.508Z,29.57
2019-03-20T03:19:13.990Z,30.10
2019-03-20T03:21:46.784Z,33.80
2019-03-20T03:24:19.513Z,31.03
2019-03-20T03:26:52.048Z,30.37
2019-03-20T03:29:24.621Z,30.57
2019-03-20T03:31:57.382Z,32.27
2019-03-20T03:34:29.871Z,30.57
2019-03-20T03:37:02.609Z,33.00
2019-03-20T03:39:35.163Z,35.73
2019-03-20T03:42:07.847Z,28.60
2019-03-20T03:44:40.794Z,29.10
2019-03-20T03:47:13.477Z,32.50
2019-03-20T03:49:46.227Z,32.53
2019-03-20T03:52:19.267Z,32.83
2019-03-20T03:54:52.066Z,34.33
2019-03-20T03:57:25.134Z,28.37
2019-03-20T03:59:57.521Z,28.40
2019-03-20T04:02:30.166Z,36.87
2019-03-20T04:05:02.957Z,30.97
2019-03-20T04:07:35.829Z,33.10
2019-03-20T04:10:08.309Z,32.97
2019-03-20T04:12:40.756Z,30.13
2019-03-20T04:15:14.432Z,30.97
2019-03-20T04:17:48.012Z,35.90
2019-03-20T04:20:20.527Z,31.73
2019-03-20T04:22:53.013Z,35.13
2019-03-20T04:25:25.662Z,34.03
2019-03-20T04:27:59.436Z,34.53
2019-03-20T04:30:31.965Z,31.53
2019-03-20T04:33:04.435Z,34.30
2019-03-20T04:35:38.070Z,37.20
2019-03-20T04:38:10.978Z,37.30
2019-03-20T04:40:43.973Z,32.43
2019-03-20T04:43:17.459Z,33.80
2019-03-20T04:45:50.200Z,36.27
2019-03-20T04:48:22.658Z,34.10
2019-03-20T04:50:55.045Z,38.07
2019-03-20T04:53:27.375Z,37.00
2019-03-20T04:55:59.769Z,38.77
2019-03-20T04:58:32.453Z,38.10
2019-03-20T05:01:05.123Z,36.07
2019-03-20T05:03:37.630Z,37.37
2019-03-20T05:06:10.360Z,39.13
2019-03-20T05:08:43.223Z,36.80
2019-03-20T05:11:15.924Z,39.30
2019-03-20T05:13:48.659Z,37.40
2019-03-20T05:16:21.506Z,35.97
2019-03-20T05:18:54.012Z,41.67
2019-03-20T05:21:26.896Z,34.37
2019-03-20T05:23:59.480Z,36.73
2019-03-20T05:26:33.217Z,40.17
2019-03-20T05:29:06.235Z,35.60
2019-03-20T05:31:40.247Z,39.97
2019-03-20T05:34:12.680Z,42.13
2019-03-20T05:36:45.598Z,39.67
2019-03-20T05:39:18.059Z,38.87
2019-03-20T05:41:51.066Z,40.40
2019-03-20T05:44:23.665Z,44.83
2019-03-20T05:46:56.372Z,43.00
2019-03-20T05:49:29.087Z,51.63
2019-03-20T05:52:01.423Z,41.13
2019-03-20T05:54:33.845Z,48.10
2019-03-20T05:57:06.215Z,47.97
2019-03-20T05:59:38.823Z,49.97
2019-03-20T06:02:11.397Z,53.37
2019-03-20T06:04:43.789Z,60.13
2019-03-20T06:07:21.678Z,54.33
2019-03-20T06:09:50.867Z,61.03
2019-03-20T06:12:23.379Z,59.80
2019-03-20T06:14:55.788Z,64.13
2019-03-20T06:17:30.778Z,67.63
2019-03-20T06:20:03.124Z,60.57
2019-03-20T06:22:35.608Z,78.43
2019-03-20T06:25:07.974Z,73.73
2019-03-20T06:27:40.383Z,73.57
2019-03-20T06:30:13.473Z,78.97
2019-03-20T06:32:46.269Z,76.23
2019-03-20T06:35:19.068Z,79.53
2019-03-20T06:37:51.912Z,81.13
2019-03-20T06:40:24.401Z,79.47
2019-03-20T06:42:56.655Z,87.97
2019-03-20T06:45:29.281Z,79.60
2019-03-20T06:48:01.420Z,81.07
2019-03-20T06:50:33.791Z,87.47
2019-03-20T06:53:06.303Z,85.00
2019-03-20T06:55:38.770Z,87.93
2019-03-20T06:58:11.647Z,90.97
2019-03-20T07:00:43.929Z,95.27
2019-03-20T07:03:16.180Z,95.40
2019-03-20T07:05:48.679Z,106.63
2019-03-20T07:08:21.091Z,96.03
2019-03-20T07:10:54.977Z,94.30
2019-03-20T07:13:27.552Z,106.27
2019-03-20T07:16:00.034Z,110.50
2019-03-20T07:18:32.271Z,109.37
2019-03-20T07:21:05.691Z,101.97
2019-03-20T07:23:38.481Z,114.47
2019-03-20T07:26:11.801Z,112.93
2019-03-20T07:28:44.242Z,109.30
2019-03-20T07:31:17.612Z,112.73
2019-03-20T07:33:50.423Z,115.47
2019-03-20T07:36:22.792Z,116.60
2019-03-20T07:38:55.102Z,111.27
2019-03-20T07:41:27.361Z,108.93
2019-03-20T07:43:59.978Z,109.23
2019-03-20T07:46:32.489Z,104.73
2019-03-20T07:49:04.874Z,105.70
2019-03-20T07:51:38.256Z,112.67
2019-03-20T07:54:11.105Z,105.23
2019-03-20T07:56:45.838Z,106.43
2019-03-20T07:59:18.272Z,113.80
2019-03-20T08:01:50.845Z,100.83
2019-03-20T08:04:23.122Z,100.93
2019-03-20T08:06:55.697Z,109.40
2019-03-20T08:09:28.573Z,94.47
2019-03-20T08:12:02.920Z,101.43
2019-03-20T08:14:35.359Z,98.17
2019-03-20T08:17:07.727Z,95.23
2019-03-20T08:19:40.188Z,96.10
2019-03-20T08:22:14.828Z,96.43
2019-03-20T08:24:47.095Z,91.73
2019-03-20T08:27:19.836Z,92.37
2019-03-20T08:29:53.198Z,91.77
2019-03-20T08:32:25.505Z,97.07
2019-03-20T08:34:58.126Z,91.27
2019-03-20T08:37:31.960Z,93.00
2019-03-20T08:40:05.691Z,96.23
2019-03-20T08:42:38.990Z,81.63
2019-03-20T08:45:11.393Z,91.50
2019-03-20T08:47:44.277Z,90.13
2019-03-20T08:50:16.691Z,83.67
2019-03-20T08:52:49.013Z,78.30
2019-03-20T08:55:21.499Z,84.97
2019-03-20T08:57:54.018Z,75.93
2019-03-20T09:00:26.443Z,87.73
2019-03-20T09:02:59.230Z,83.17
2019-03-20T09:05:31.574Z,83.70
2019-03-20T09:08:04.794Z,75.60
2019-03-20T09:10:37.173Z,79.87
2019-03-20T09:13:09.543Z,78.43
2019-03-20T09:15:41.854Z,78.30
2019-03-20T09:18:14.228Z,78.23
2019-03-20T09:20:46.486Z,78.43
2019-03-20T09:23:18.790Z,71.87
2019-03-20T09:25:51.145Z,77.50
2019-03-20T09:28:23.431Z,83.20
2019-03-20T09:30:56.240Z,77.03
2019-03-20T09:33:29.645Z,72.80
2019-03-20T09:36:01.931Z,78.83
2019-03-20T09:38:43.063Z,73.47
2019-03-20T09:41:09.660Z,83.70
2019-03-20T09:43:41.932Z,77.07
2019-03-20T09:46:14.161Z,75.00
2019-03-20T09:48:46.405Z,72.23
2019-03-20T09:51:18.704Z,80.63
2019-03-20T09:53:50.815Z,73.23
2019-03-20T09:56:23.114Z,69.07
2019-03-20T09:58:55.437Z,69.57
2019-03-20T10:01:27.783Z,70.00
2019-03-20T10:04:00.065Z,73.43
2019-03-20T10:06:32.362Z,69.00
2019-03-20T10:09:04.653Z,78.80
2019-03-20T10:11:37.040Z,69.53
2019-03-20T10:14:09.549Z,68.67
2019-03-20T10:16:42.195Z,63.67
2019-03-20T10:19:14.539Z,66.37
2019-03-20T10:21:46.765Z,69.67
2019-03-20T10:24:19.273Z,65.73
2019-03-20T10:26:51.400Z,66.63
2019-03-20T10:29:25.264Z,69.90
2019-03-20T10:31:57.495Z,70.87
2019-03-20T10:34:39.204Z,74.90
2019-03-20T10:37:03.906Z,67.37
2019-03-20T10:39:36.191Z,62.90
2019-03-20T10:42:10.475Z,66.27
2019-03-20T10:44:42.733Z,67.33
2019-03-20T10:47:14.909Z,73.07
2019-03-20T10:49:47.571Z,66.73
2019-03-20T10:52:19.887Z,65.97
2019-03-20T10:54:52.406Z,64.97
2019-03-20T10:57:24.734Z,63.23
2019-03-20T10:59:59.367Z,62.30
2019-03-20T11:02:31.728Z,61.70
2019-03-20T11:05:04.085Z,54.73
2019-03-20T11:07:37.622Z,61.13
2019-03-20T11:10:10.033Z,50.90
2019-03-20T11:12:42.261Z,59.77
2019-03-20T11:15:14.498Z,58.30
2019-03-20T11:17:46.938Z,55.80
2019-03-20T11:20:19.242Z,56.33
2019-03-20T11:22:51.623Z,55.03
2019-03-20T11:25:23.854Z,55.93
2019-03-20T11:27:56.183Z,55.40
2019-03-20T11:30:28.569Z,49.40
2019-03-20T11:33:00.819Z,55.50
2019-03-20T11:35:33.172Z,53.47
2019-03-20T11:38:05.425Z,54.90
2019-03-20T11:40:37.715Z,58.87
2019-03-20T11:43:10.138Z,55.67
2019-03-20T11:45:42.375Z,62.17
2019-03-20T11:48:14.712Z,56.97
2019-03-20T11:50:47.068Z,55.30
2019-03-20T11:53:19.347Z,52.57
2019-03-20T11:55:51.630Z,51.93
2019-03-20T11:58:23.889Z,56.50
2019-03-20T12:00:56.303Z,51.80
2019-03-20T12:03:28.552Z,59.03
2019-03-20T12:06:02.812Z,53.67
2019-03-20T12:08:35.246Z,60.37
2019-03-20T12:11:07.469Z,56.10
2019-03-20T12:13:40.023Z,55.23
2019-03-20T12:16:12.376Z,57.07
2019-03-20T12:18:44.524Z,61.93
2019-03-20T12:21:16.972Z,58.37
2019-03-20T12:23:49.344Z,51.47
2019-03-20T12:26:21.888Z,52.13
2019-03-20T12:28:54.345Z,48.90
2019-03-20T12:31:26.856Z,49.07
2019-03-20T12:33:59.102Z,55.60
2019-03-20T12:36:31.393Z,51.73
2019-03-20T12:39:03.766Z,51.10
2019-03-20T12:41:37.344Z,50.23
2019-03-20T12:44:09.602Z,55.17
2019-03-20T12:46:42.084Z,57.37
2019-03-20T12:49:14.604Z,62.80
2019-03-20T12:51:47.195Z,50.57
2019-03-20T12:54:19.628Z,52.23
2019-03-20T12:56:51.880Z,55.70
2019-03-20T12:59:24.234Z,54.03
2019-03-20T13:01:56.718Z,56.13
2019-03-20T13:04:29.097Z,54.37
2019-03-20T13:07:02.092Z,50.73
2019-03-20T13:09:34.434Z,54.33
2019-03-20T13:12:06.791Z,58.73
2019-03-20T13:14:39.102Z,52.73
2019-03-20T13:17:11.563Z,49.00
2019-03-20T13:19:43.923Z,51.70
2019-03-20T13:22:16.342Z,51.53
2019-03-20T13:24:49.067Z,52.87
2019-03-20T13:27:21.426Z,58.00
2019-03-20T13:29:53.749Z,51.20
2019-03-20T13:32:26.278Z,59.33
2019-03-20T13:34:58.570Z,56.80
2019-03-20T13:37:30.827Z,47.03
2019-03-20T13:40:02.919Z,49.47
2019-03-20T13:42:35.351Z,50.50
2019-03-20T13:45:07.665Z,45.67
2019-03-20T13:47:40.006Z,45.07
2019-03-20T13:50:12.565Z,44.33
2019-03-20T13:52:45.235Z,45.63
2019-03-20T13:55:17.872Z,40.43
2019-03-20T13:57:50.660Z,44.40
2019-03-20T14:00:23.030Z,42.77
2019-03-20T14:02:55.668Z,43.03
2019-03-20T14:05:27.953Z,35.43
2019-03-20T14:08:00.189Z,42.27
2019-03-20T14:10:32.553Z,33.97
2019-03-20T14:13:04.870Z,32.70
2019-03-20T14:15:37.205Z,39.53
2019-03-20T14:18:09.475Z,39.53
2019-03-20T14:20:41.979Z,38.83
2019-03-20T14:23:14.250Z,39.50
2019-03-20T14:25:46.357Z,38.57
2019-03-20T14:28:18.673Z,39.50
2019-03-20T14:30:50.943Z,41.67
2019-03-20T14:33:23.300Z,38.23
2019-03-20T14:35:55.625Z,34.60
2019-03-20T14:38:28.204Z,32.97
2019-03-20T14:41:00.683Z,41.03
2019-03-20T14:43:32.906Z,48.23
2019-03-20T14:46:07.397Z,42.73
2019-03-20T14:48:39.832Z,39.33
2019-03-20T14:51:12.010Z,37.57
2019-03-20T14:53:44.370Z,32.03
2019-03-20T14:56:18.298Z,35.53
2019-03-20T14:58:50.712Z,43.80
2019-03-20T15:01:23.125Z,39.50
2019-03-20T15:03:55.685Z,34.83
2019-03-20T15:06:27.969Z,33.33
2019-03-20T15:09:00.232Z,37.47
2019-03-20T15:11:32.285Z,37.47
2019-03-20T15:14:04.510Z,38.20
2019-03-20T15:16:36.900Z,34.90
2019-03-20T15:19:09.223Z,33.97
2019-03-20T15:21:43.783Z,34.40
2019-03-20T15:24:16.083Z,33.30
2019-03-20T15:26:48.341Z,32.43
2019-03-20T15:29:20.867Z,31.13
2019-03-20T15:31:53.761Z,30.03
2019-03-20T15:34:26.183Z,31.90
2019-03-20T15:36:58.510Z,26.67
2019-03-20T15:39:30.946Z,32.63
2019-03-20T15:42:03.401Z,31.53
2019-03-20T15:44:35.984Z,31.13
2019-03-20T15:47:08.355Z,29.03
2019-03-20T15:49:40.799Z,26.27
2019-03-20T15:52:13.288Z,28.07
2019-03-20T15:54:45.915Z,25.47
2019-03-20T15:57:18.362Z,27.47
2019-03-20T15:59:52.693Z,26.90
2019-03-20T16:02:25.235Z,29.97
2019-03-20T16:04:57.631Z,29.97
2019-03-20T16:07:29.928Z,26.27
2019-03-20T16:10:02.349Z,23.77
2019-03-20T16:12:34.802Z,31.17
2019-03-20T16:15:07.280Z,27.33
2019-03-20T16:17:39.698Z,29.33
2019-03-20T16:20:11.911Z,26.07
2019-03-20T16:22:44.274Z,31.10
2019-03-20T16:25:16.554Z,32.87
2019-03-20T16:27:49.053Z,26.43
2019-03-20T16:30:21.390Z,31.90
2019-03-20T16:32:56.353Z,26.63
2019-03-20T16:35:28.414Z,31.57
2019-03-20T16:38:01.047Z,31.30
2019-03-20T16:40:33.883Z,27.93
2019-03-20T16:43:06.529Z,32.80
2019-03-20T16:45:39.045Z,31.53
2019-03-20T16:48:11.481Z,33.43
2019-03-20T16:50:44.258Z,27.07
2019-03-20T16:53:17.691Z,24.93
2019-03-20T16:55:50.129Z,28.67
2019-03-20T16:58:22.611Z,26.37
2019-03-20T17:00:55.131Z,31.90
2019-03-20T17:03:27.488Z,32.73
2019-03-20T17:05:59.993Z,29.87
2019-03-20T17:08:32.871Z,26.50
2019-03-20T17:11:05.362Z,28.00
2019-03-20T17:13:38.010Z,33.13
2019-03-20T17:16:10.471Z,30.17
2019-03-20T17:18:43.851Z,28.87
2019-03-20T17:21:17.748Z,27.53
2019-03-20T17:23:50.029Z,32.47
2019-03-20T17:26:22.295Z,29.43
2019-03-20T17:28:54.529Z,28.67
2019-03-20T17:31:28.368Z,24.17
2019-03-20T17:34:00.930Z,26.30
2019-03-20T17:36:33.750Z,30.47
2019-03-20T17:39:08.340Z,28.37
2019-03-20T17:41:40.790Z,24.73
2019-03-20T17:44:13.046Z,26.63
2019-03-20T17:46:45.285Z,30.83
2019-03-20T17:49:17.530Z,24.93
2019-03-20T17:51:49.814Z,24.17
2019-03-20T17:54:22.079Z,20.90
2019-03-20T17:56:54.354Z,21.13
2019-03-20T17:59:27.016Z,21.07
2019-03-20T18:01:59.304Z,20.17
2019-03-20T18:04:32.501Z,23.80
2019-03-20T18:07:04.833Z,22.43
2019-03-20T18:09:37.343Z,22.10
2019-03-20T18:12:09.665Z,28.30
2019-03-20T18:14:42.187Z,24.27
2019-03-20T18:17:14.852Z,23.20
2019-03-20T18:19:47.019Z,24.67
2019-03-20T18:22:20.998Z,25.57
2019-03-20T18:24:53.658Z,26.97
2019-03-20T18:27:29.041Z,29.50
2019-03-20T18:30:02.854Z,27.97
2019-03-20T18:32:36.121Z,25.63
2019-03-20T18:35:09.862Z,30.63
2019-03-20T18:37:42.224Z,25.90
2019-03-20T18:40:14.585Z,29.20
2019-03-20T18:42:47.298Z,26.60
2019-03-20T18:45:19.672Z,24.33
2019-03-20T18:47:52.333Z,30.77
2019-03-20T18:50:24.731Z,30.87
2019-03-20T18:52:57.080Z,34.73
2019-03-20T18:55:29.887Z,31.77
2019-03-20T18:58:02.296Z,29.33
2019-03-20T19:00:36.296Z,30.07
2019-03-20T19:03:09.201Z,34.70
2019-03-20T19:05:41.566Z,33.83
2019-03-20T19:08:13.928Z,27.53
2019-03-20T19:10:46.621Z,31.87
2019-03-20T19:13:19.063Z,28.37
2019-03-20T19:15:51.303Z,34.13
2019-03-20T19:18:23.710Z,28.80
2019-03-20T19:20:56.185Z,29.17
2019-03-20T19:23:28.735Z,36.87
2019-03-20T19:26:01.150Z,33.57
2019-03-20T19:28:33.697Z,33.87
2019-03-20T19:31:06.289Z,41.70
2019-03-20T19:33:38.854Z,38.77
2019-03-20T19:36:11.619Z,36.93
2019-03-20T19:38:44.040Z,34.47
2019-03-20T19:41:17.106Z,39.37
2019-03-20T19:43:49.501Z,37.70
2019-03-20T19:46:22.201Z,36.03
2019-03-20T19:48:54.669Z,39.27
2019-03-20T19:51:27.921Z,34.57
2019-03-20T19:54:00.504Z,32.80
2019-03-20T19:56:33.211Z,40.27
2019-03-20T19:59:05.469Z,27.77
2019-03-20T20:01:37.999Z,33.27
2019-03-20T20:04:10.266Z,28.83
2019-03-20T20:06:42.587Z,31.40
2019-03-20T20:09:15.227Z,31.07
2019-03-20T20:11:47.895Z,29.37
2019-03-20T20:14:20.374Z,33.07
2019-03-20T20:16:52.780Z,36.70
2019-03-20T20:19:25.060Z,30.20
2019-03-20T20:21:57.306Z,33.37
2019-03-20T20:24:29.685Z,34.80
2019-03-20T20:27:01.977Z,29.57
2019-03-20T20:29:34.354Z,32.40
2019-03-20T20:32:06.725Z,36.57
2019-03-20T20:34:40.098Z,34.27
2019-03-20T20:37:13.505Z,34.73
2019-03-20T20:39:45.992Z,36.87
2019-03-20T20:42:18.587Z,35.73
2019-03-20T20:44:51.113Z,38.80
2019-03-20T20:47:23.575Z,32.70
2019-03-20T20:49:55.972Z,33.67
2019-03-20T20:52:28.501Z,31.23
2019-03-20T20:55:01.098Z,29.57
2019-03-20T20:57:33.523Z,33.03
2019-03-20T21:00:06.046Z,32.77
2019-03-20T21:02:38.447Z,36.47
2019-03-20T21:05:11.121Z,38.60
2019-03-20T21:07:43.699Z,33.03
2019-03-20T21:10:15.923Z,34.90
2019-03-20T21:12:56.121Z,37.13
2019-03-20T21:15:22.352Z,35.60
2019-03-20T21:17:54.644Z,32.53
2019-03-20T21:20:27.006Z,36.80
2019-03-20T21:22:59.926Z,43.00
2019-03-20T21:25:32.303Z,43.77
2019-03-20T21:28:04.862Z,38.77
2019-03-20T21:30:37.297Z,42.37
2019-03-20T21:33:09.699Z,40.80
2019-03-20T21:35:42.010Z,39.63
2019-03-20T21:38:14.334Z,46.30
2019-03-20T21:40:46.558Z,54.10
2019-03-20T21:43:18.623Z,50.23
2019-03-20T21:45:51.098Z,49.90
2019-03-20T21:48:23.513Z,54.40
2019-03-20T21:50:55.797Z,57.57
2019-03-20T21:53:28.286Z,52.07
2019-03-20T21:56:00.717Z,59.90
2019-03-20T21:58:32.957Z,52.87
2019-03-20T22:01:05.778Z,59.27
2019-03-20T22:03:38.021Z,51.23
2019-03-20T22:06:10.425Z,51.80
2019-03-20T22:08:43.100Z,57.40
2019-03-20T22:11:15.466Z,53.50
2019-03-20T22:13:47.751Z,56.77
2019-03-20T22:16:20.528Z,57.67
2019-03-20T22:18:53.094Z,59.30
2019-03-20T22:21:25.436Z,62.73
2019-03-20T22:23:57.942Z,55.87
2019-03-20T22:26:30.313Z,48.67
2019-03-20T22:29:02.614Z,47.70
2019-03-20T22:31:34.970Z,50.07
2019-03-20T22:34:07.704Z,54.53
2019-03-20T22:36:40.018Z,51.53
2019-03-20T22:39:12.468Z,48.97
2019-03-20T22:41:44.790Z,47.47
2019-03-20T22:44:17.272Z,45.57
2019-03-20T22:46:50.611Z,45.40
2019-03-20T22:49:23.144Z,49.10
2019-03-20T22:51:55.484Z,45.33
2019-03-20T22:54:27.791Z,47.33
2019-03-20T22:57:00.081Z,44.23
2019-03-20T22:59:32.368Z,48.67
2019-03-20T23:02:04.906Z,44.83
2019-03-20T23:04:37.379Z,42.37
2019-03-20T23:07:10.762Z,45.43
2019-03-20T23:09:43.443Z,43.20
2019-03-20T23:12:17.756Z,42.20
2019-03-20T23:14:49.799Z,45.37
2019-03-20T23:17:22.281Z,44.80
2019-03-20T23:19:54.582Z,50.40
2019-03-20T23:22:26.955Z,40.90
2019-03-20T23:24:59.279Z,46.00
2019-03-20T23:27:31.452Z,46.43
2019-03-20T23:30:03.873Z,46.90
2019-03-20T23:32:36.155Z,47.47
2019-03-20T23:35:08.536Z,50.77
2019-03-20T23:37:40.974Z,55.10
2019-03-20T23:40:13.268Z,51.17
2019-03-20T23:42:45.650Z,48.97
2019-03-20T23:45:18.290Z,46.63
2019-03-20T23:47:50.771Z,63.83
2019-03-20T23:50:23.099Z,51.97
2019-03-20T23:52:55.398Z,50.40
2019-03-20T23:55:27.759Z,48.17
2019-03-20T23:58:00.132Z,55.07
